sensor_id;sensor_type;location;lat;lon;timestamp;P1;durP1;ratioP1;P2;durP2;ratioP2
34134;SDS011;20410;55.578;12.968;2023-05-19T00:00:01;11.00;;;7.03;;
34134;SDS011;20410;55.578;12.968;2023-05-19T00:02:28;11.00;;;6.07;;
34134;SDS011;20410;55.578;12.968;2023-05-19T00:04:58;15.10;;;7.30;;
34134;SDS011;20410;55.578;12.968;2023-05-19T00:07:26;12.23;;;6.60;;
34134;SDS011;20410;55.578;12.968;2023-05-19T00:09:55;9.17;;;5.77;;
34134;SDS011;20410;55.578;12.968;2023-05-19T00:12:20;13.67;;;7.80;;
34134;SDS011;20410;55.578;12.968;2023-05-19T00:14:47;14.20;;;7.17;;
34134;SDS011;20410;55.578;12.968;2023-05-19T00:17:12;13.30;;;7.20;;
34134;SDS011;20410;55.578;12.968;2023-05-19T00:19:40;9.00;;;5.90;;
34134;SDS011;20410;55.578;12.968;2023-05-19T00:22:09;17.63;;;7.57;;
34134;SDS011;20410;55.578;12.968;2023-05-19T00:24:34;10.97;;;6.40;;
34134;SDS011;20410;55.578;12.968;2023-05-19T00:27:00;10.67;;;6.53;;
34134;SDS011;20410;55.578;12.968;2023-05-19T00:29:25;11.37;;;7.20;;
34134;SDS011;20410;55.578;12.968;2023-05-19T00:31:51;12.97;;;6.50;;
34134;SDS011;20410;55.578;12.968;2023-05-19T00:34:17;10.93;;;5.83;;
34134;SDS011;20410;55.578;12.968;2023-05-19T00:36:42;11.70;;;6.00;;
34134;SDS011;20410;55.578;12.968;2023-05-19T00:39:08;10.83;;;6.20;;
34134;SDS011;20410;55.578;12.968;2023-05-19T00:41:33;9.27;;;5.67;;
34134;SDS011;20410;55.578;12.968;2023-05-19T00:43:59;11.53;;;6.07;;
34134;SDS011;20410;55.578;12.968;2023-05-19T00:46:24;9.97;;;6.67;;
34134;SDS011;20410;55.578;12.968;2023-05-19T00:48:50;13.10;;;7.30;;
34134;SDS011;20410;55.578;12.968;2023-05-19T00:51:15;13.53;;;6.93;;
34134;SDS011;20410;55.578;12.968;2023-05-19T00:53:42;11.03;;;6.57;;
34134;SDS011;20410;55.578;12.968;2023-05-19T00:56:12;9.67;;;6.77;;
34134;SDS011;20410;55.578;12.968;2023-05-19T00:58:38;9.23;;;6.40;;
34134;SDS011;20410;55.578;12.968;2023-05-19T01:01:04;11.17;;;7.20;;
34134;SDS011;20410;55.578;12.968;2023-05-19T01:03:32;13.43;;;7.50;;
34134;SDS011;20410;55.578;12.968;2023-05-19T01:06:00;12.80;;;6.73;;
34134;SDS011;20410;55.578;12.968;2023-05-19T01:08:29;12.27;;;7.50;;
34134;SDS011;20410;55.578;12.968;2023-05-19T01:10:56;11.70;;;7.07;;
34134;SDS011;20410;55.578;12.968;2023-05-19T01:13:22;11.00;;;6.70;;
34134;SDS011;20410;55.578;12.968;2023-05-19T01:15:55;9.50;;;6.43;;
34134;SDS011;20410;55.578;12.968;2023-05-19T01:18:40;10.83;;;6.60;;
34134;SDS011;20410;55.578;12.968;2023-05-19T01:29:50;11.13;;;7.03;;
34134;SDS011;20410;55.578;12.968;2023-05-19T01:32:37;9.87;;;6.90;;
34134;SDS011;20410;55.578;12.968;2023-05-19T01:35:06;10.23;;;5.93;;
34134;SDS011;20410;55.578;12.968;2023-05-19T01:37:33;14.07;;;8.13;;
34134;SDS011;20410;55.578;12.968;2023-05-19T01:40:01;10.57;;;6.30;;
34134;SDS011;20410;55.578;12.968;2023-05-19T01:42:27;12.87;;;7.53;;
34134;SDS011;20410;55.578;12.968;2023-05-19T01:44:54;12.10;;;7.33;;
34134;SDS011;20410;55.578;12.968;2023-05-19T01:47:21;12.20;;;7.20;;
34134;SDS011;20410;55.578;12.968;2023-05-19T01:49:47;10.30;;;6.70;;
34134;SDS011;20410;55.578;12.968;2023-05-19T01:52:12;12.53;;;7.33;;
34134;SDS011;20410;55.578;12.968;2023-05-19T01:54:38;12.97;;;8.13;;
34134;SDS011;20410;55.578;12.968;2023-05-19T01:57:09;13.03;;;8.10;;
34134;SDS011;20410;55.578;12.968;2023-05-19T01:59:56;11.50;;;8.03;;
34134;SDS011;20410;55.578;12.968;2023-05-19T02:05:44;16.17;;;9.90;;
34134;SDS011;20410;55.578;12.968;2023-05-19T02:08:42;16.00;;;7.90;;
34134;SDS011;20410;55.578;12.968;2023-05-19T02:11:22;14.70;;;8.27;;
34134;SDS011;20410;55.578;12.968;2023-05-19T02:13:55;17.00;;;8.50;;
34134;SDS011;20410;55.578;12.968;2023-05-19T02:16:26;13.60;;;8.60;;
34134;SDS011;20410;55.578;12.968;2023-05-19T02:18:52;16.33;;;9.43;;
34134;SDS011;20410;55.578;12.968;2023-05-19T02:21:19;17.93;;;10.00;;
34134;SDS011;20410;55.578;12.968;2023-05-19T02:23:45;19.13;;;11.27;;
34134;SDS011;20410;55.578;12.968;2023-05-19T02:26:11;20.13;;;11.77;;
34134;SDS011;20410;55.578;12.968;2023-05-19T02:28:36;23.27;;;11.77;;
34134;SDS011;20410;55.578;12.968;2023-05-19T02:31:02;17.63;;;10.33;;
34134;SDS011;20410;55.578;12.968;2023-05-19T02:33:32;19.80;;;10.93;;
34134;SDS011;20410;55.578;12.968;2023-05-19T02:35:58;15.83;;;9.67;;
34134;SDS011;20410;55.578;12.968;2023-05-19T02:38:24;15.83;;;10.63;;
34134;SDS011;20410;55.578;12.968;2023-05-19T02:40:50;13.43;;;9.90;;
34134;SDS011;20410;55.578;12.968;2023-05-19T02:43:17;13.93;;;8.60;;
34134;SDS011;20410;55.578;12.968;2023-05-19T02:45:43;17.50;;;9.13;;
34134;SDS011;20410;55.578;12.968;2023-05-19T02:48:08;14.37;;;9.20;;
34134;SDS011;20410;55.578;12.968;2023-05-19T02:50:34;13.07;;;9.67;;
34134;SDS011;20410;55.578;12.968;2023-05-19T02:53:00;11.87;;;9.00;;
34134;SDS011;20410;55.578;12.968;2023-05-19T02:55:26;16.30;;;10.93;;
34134;SDS011;20410;55.578;12.968;2023-05-19T02:57:52;15.10;;;9.33;;
34134;SDS011;20410;55.578;12.968;2023-05-19T03:00:17;14.43;;;9.97;;
34134;SDS011;20410;55.578;12.968;2023-05-19T03:02:44;14.77;;;11.57;;
34134;SDS011;20410;55.578;12.968;2023-05-19T03:05:09;14.07;;;9.20;;
34134;SDS011;20410;55.578;12.968;2023-05-19T03:07:35;15.97;;;11.47;;
34134;SDS011;20410;55.578;12.968;2023-05-19T03:10:01;18.40;;;11.83;;
34134;SDS011;20410;55.578;12.968;2023-05-19T03:12:30;22.53;;;12.20;;
34134;SDS011;20410;55.578;12.968;2023-05-19T03:14:57;16.33;;;11.17;;
34134;SDS011;20410;55.578;12.968;2023-05-19T03:17:23;14.63;;;10.73;;
34134;SDS011;20410;55.578;12.968;2023-05-19T03:19:49;14.40;;;9.77;;
34134;SDS011;20410;55.578;12.968;2023-05-19T03:22:15;16.00;;;9.93;;
34134;SDS011;20410;55.578;12.968;2023-05-19T03:24:42;15.13;;;10.10;;
34134;SDS011;20410;55.578;12.968;2023-05-19T03:27:08;17.87;;;13.67;;
34134;SDS011;20410;55.578;12.968;2023-05-19T03:29:33;18.60;;;12.97;;
34134;SDS011;20410;55.578;12.968;2023-05-19T03:32:00;16.27;;;12.33;;
34134;SDS011;20410;55.578;12.968;2023-05-19T03:34:26;19.77;;;12.00;;
34134;SDS011;20410;55.578;12.968;2023-05-19T03:36:51;14.10;;;11.77;;
34134;SDS011;20410;55.578;12.968;2023-05-19T03:39:17;18.23;;;13.20;;
34134;SDS011;20410;55.578;12.968;2023-05-19T03:41:42;17.77;;;11.90;;
34134;SDS011;20410;55.578;12.968;2023-05-19T03:44:08;16.80;;;11.80;;
34134;SDS011;20410;55.578;12.968;2023-05-19T03:46:33;18.70;;;12.67;;
34134;SDS011;20410;55.578;12.968;2023-05-19T03:48:59;22.87;;;13.53;;
34134;SDS011;20410;55.578;12.968;2023-05-19T03:51:25;19.33;;;15.47;;
34134;SDS011;20410;55.578;12.968;2023-05-19T03:53:52;17.67;;;13.97;;
34134;SDS011;20410;55.578;12.968;2023-05-19T03:56:18;19.33;;;14.53;;
34134;SDS011;20410;55.578;12.968;2023-05-19T03:58:47;22.63;;;15.30;;
34134;SDS011;20410;55.578;12.968;2023-05-19T04:01:13;18.97;;;13.57;;
34134;SDS011;20410;55.578;12.968;2023-05-19T04:03:39;14.83;;;12.03;;
34134;SDS011;20410;55.578;12.968;2023-05-19T04:06:05;18.37;;;14.60;;
34134;SDS011;20410;55.578;12.968;2023-05-19T04:08:31;19.77;;;13.93;;
34134;SDS011;20410;55.578;12.968;2023-05-19T04:10:57;17.17;;;13.40;;
34134;SDS011;20410;55.578;12.968;2023-05-19T04:13:23;16.90;;;13.73;;
34134;SDS011;20410;55.578;12.968;2023-05-19T04:15:48;22.07;;;15.23;;
34134;SDS011;20410;55.578;12.968;2023-05-19T04:18:14;24.53;;;17.87;;
34134;SDS011;20410;55.578;12.968;2023-05-19T04:20:39;22.87;;;17.53;;
34134;SDS011;20410;55.578;12.968;2023-05-19T04:23:05;22.87;;;16.27;;
34134;SDS011;20410;55.578;12.968;2023-05-19T04:25:31;26.47;;;16.53;;
34134;SDS011;20410;55.578;12.968;2023-05-19T04:27:57;28.20;;;16.20;;
34134;SDS011;20410;55.578;12.968;2023-05-19T04:30:24;27.37;;;15.43;;
34134;SDS011;20410;55.578;12.968;2023-05-19T04:32:50;27.97;;;16.17;;
34134;SDS011;20410;55.578;12.968;2023-05-19T04:35:15;22.20;;;14.23;;
34134;SDS011;20410;55.578;12.968;2023-05-19T04:37:41;23.63;;;13.40;;
34134;SDS011;20410;55.578;12.968;2023-05-19T04:40:09;21.93;;;14.17;;
34134;SDS011;20410;55.578;12.968;2023-05-19T04:42:36;20.10;;;14.27;;
34134;SDS011;20410;55.578;12.968;2023-05-19T04:45:05;23.83;;;14.13;;
34134;SDS011;20410;55.578;12.968;2023-05-19T04:47:33;20.50;;;12.70;;
34134;SDS011;20410;55.578;12.968;2023-05-19T04:50:02;26.53;;;13.87;;
34134;SDS011;20410;55.578;12.968;2023-05-19T04:52:28;15.00;;;12.00;;
34134;SDS011;20410;55.578;12.968;2023-05-19T04:54:53;18.57;;;11.80;;
34134;SDS011;20410;55.578;12.968;2023-05-19T04:57:19;20.20;;;10.83;;
34134;SDS011;20410;55.578;12.968;2023-05-19T04:59:45;17.20;;;9.83;;
34134;SDS011;20410;55.578;12.968;2023-05-19T05:02:10;20.10;;;10.83;;
34134;SDS011;20410;55.578;12.968;2023-05-19T05:04:36;23.00;;;11.33;;
34134;SDS011;20410;55.578;12.968;2023-05-19T05:07:04;20.33;;;11.27;;
34134;SDS011;20410;55.578;12.968;2023-05-19T05:09:30;20.03;;;9.93;;
34134;SDS011;20410;55.578;12.968;2023-05-19T05:11:55;19.93;;;10.63;;
34134;SDS011;20410;55.578;12.968;2023-05-19T05:14:21;22.33;;;10.50;;
34134;SDS011;20410;55.578;12.968;2023-05-19T05:16:48;19.27;;;10.67;;
34134;SDS011;20410;55.578;12.968;2023-05-19T05:19:14;16.60;;;8.77;;
34134;SDS011;20410;55.578;12.968;2023-05-19T05:21:39;20.70;;;9.87;;
34134;SDS011;20410;55.578;12.968;2023-05-19T05:24:06;17.63;;;9.77;;
34134;SDS011;20410;55.578;12.968;2023-05-19T05:26:33;15.53;;;8.77;;
34134;SDS011;20410;55.578;12.968;2023-05-19T05:28:59;17.23;;;9.80;;
34134;SDS011;20410;55.578;12.968;2023-05-19T05:31:25;16.83;;;9.77;;
34134;SDS011;20410;55.578;12.968;2023-05-19T05:33:51;14.93;;;9.30;;
34134;SDS011;20410;55.578;12.968;2023-05-19T05:36:16;16.27;;;9.83;;
34134;SDS011;20410;55.578;12.968;2023-05-19T05:38:42;19.17;;;9.93;;
34134;SDS011;20410;55.578;12.968;2023-05-19T05:41:07;15.67;;;8.83;;
34134;SDS011;20410;55.578;12.968;2023-05-19T05:43:33;13.63;;;7.73;;
34134;SDS011;20410;55.578;12.968;2023-05-19T05:45:58;16.80;;;8.83;;
34134;SDS011;20410;55.578;12.968;2023-05-19T05:48:24;15.50;;;8.60;;
34134;SDS011;20410;55.578;12.968;2023-05-19T05:50:50;18.80;;;9.20;;
34134;SDS011;20410;55.578;12.968;2023-05-19T05:53:17;12.43;;;7.40;;
34134;SDS011;20410;55.578;12.968;2023-05-19T05:55:47;15.73;;;7.70;;
34134;SDS011;20410;55.578;12.968;2023-05-19T05:58:13;15.63;;;7.50;;
34134;SDS011;20410;55.578;12.968;2023-05-19T06:00:41;16.07;;;6.90;;
34134;SDS011;20410;55.578;12.968;2023-05-19T06:03:07;13.57;;;6.47;;
34134;SDS011;20410;55.578;12.968;2023-05-19T06:05:33;15.77;;;7.37;;
34134;SDS011;20410;55.578;12.968;2023-05-19T06:07:59;12.47;;;7.33;;
34134;SDS011;20410;55.578;12.968;2023-05-19T06:10:26;14.03;;;5.60;;
34134;SDS011;20410;55.578;12.968;2023-05-19T06:12:52;15.53;;;5.10;;
34134;SDS011;20410;55.578;12.968;2023-05-19T06:15:17;12.07;;;5.97;;
34134;SDS011;20410;55.578;12.968;2023-05-19T06:17:43;13.67;;;6.13;;
34134;SDS011;20410;55.578;12.968;2023-05-19T06:20:09;10.97;;;5.77;;
34134;SDS011;20410;55.578;12.968;2023-05-19T06:22:35;14.77;;;5.20;;
34134;SDS011;20410;55.578;12.968;2023-05-19T06:25:01;16.63;;;5.53;;
34134;SDS011;20410;55.578;12.968;2023-05-19T06:27:27;12.93;;;4.97;;
34134;SDS011;20410;55.578;12.968;2023-05-19T06:29:53;10.57;;;5.40;;
34134;SDS011;20410;55.578;12.968;2023-05-19T06:32:18;12.63;;;5.00;;
34134;SDS011;20410;55.578;12.968;2023-05-19T06:34:44;10.60;;;4.60;;
34134;SDS011;20410;55.578;12.968;2023-05-19T06:37:10;12.70;;;4.83;;
34134;SDS011;20410;55.578;12.968;2023-05-19T06:39:37;13.13;;;5.10;;
34134;SDS011;20410;55.578;12.968;2023-05-19T06:42:02;9.50;;;4.17;;
34134;SDS011;20410;55.578;12.968;2023-05-19T06:44:28;9.97;;;4.23;;
34134;SDS011;20410;55.578;12.968;2023-05-19T06:46:54;11.37;;;4.00;;
34134;SDS011;20410;55.578;12.968;2023-05-19T06:49:19;11.13;;;4.13;;
34134;SDS011;20410;55.578;12.968;2023-05-19T06:51:45;9.20;;;3.87;;
34134;SDS011;20410;55.578;12.968;2023-05-19T06:54:11;9.37;;;3.70;;
34134;SDS011;20410;55.578;12.968;2023-05-19T06:56:39;10.97;;;4.07;;
34134;SDS011;20410;55.578;12.968;2023-05-19T06:59:05;9.20;;;3.77;;
34134;SDS011;20410;55.578;12.968;2023-05-19T07:01:31;11.53;;;3.57;;
34134;SDS011;20410;55.578;12.968;2023-05-19T07:03:56;10.13;;;3.63;;
34134;SDS011;20410;55.578;12.968;2023-05-19T07:06:22;7.93;;;3.60;;
34134;SDS011;20410;55.578;12.968;2023-05-19T07:08:47;12.17;;;3.60;;
34134;SDS011;20410;55.578;12.968;2023-05-19T07:11:13;10.67;;;3.77;;
34134;SDS011;20410;55.578;12.968;2023-05-19T07:13:39;10.50;;;3.37;;
34134;SDS011;20410;55.578;12.968;2023-05-19T07:16:04;6.93;;;3.10;;
34134;SDS011;20410;55.578;12.968;2023-05-19T07:18:30;11.17;;;3.67;;
34134;SDS011;20410;55.578;12.968;2023-05-19T07:20:56;9.27;;;3.40;;
34134;SDS011;20410;55.578;12.968;2023-05-19T07:23:22;8.60;;;2.93;;
34134;SDS011;20410;55.578;12.968;2023-05-19T07:25:48;11.70;;;3.80;;
34134;SDS011;20410;55.578;12.968;2023-05-19T07:28:13;12.20;;;3.93;;
34134;SDS011;20410;55.578;12.968;2023-05-19T07:30:39;11.43;;;3.23;;
34134;SDS011;20410;55.578;12.968;2023-05-19T07:33:05;8.73;;;2.90;;
34134;SDS011;20410;55.578;12.968;2023-05-19T07:35:30;10.80;;;3.43;;
34134;SDS011;20410;55.578;12.968;2023-05-19T07:37:56;7.30;;;2.97;;
34134;SDS011;20410;55.578;12.968;2023-05-19T07:40:22;8.77;;;3.37;;
34134;SDS011;20410;55.578;12.968;2023-05-19T07:42:48;9.57;;;3.73;;
34134;SDS011;20410;55.578;12.968;2023-05-19T07:45:14;10.97;;;3.40;;
34134;SDS011;20410;55.578;12.968;2023-05-19T07:47:39;15.10;;;3.45;;
34134;SDS011;20410;55.578;12.968;2023-05-19T07:50:05;9.77;;;3.00;;
34134;SDS011;20410;55.578;12.968;2023-05-19T07:52:31;9.43;;;3.60;;
34134;SDS011;20410;55.578;12.968;2023-05-19T07:54:57;11.27;;;3.27;;
34134;SDS011;20410;55.578;12.968;2023-05-19T07:57:23;10.87;;;3.30;;
34134;SDS011;20410;55.578;12.968;2023-05-19T07:59:49;12.73;;;3.20;;
34134;SDS011;20410;55.578;12.968;2023-05-19T08:02:15;8.60;;;3.17;;
34134;SDS011;20410;55.578;12.968;2023-05-19T08:04:40;8.15;;;2.95;;
34134;SDS011;20410;55.578;12.968;2023-05-19T08:07:06;13.18;;;3.38;;
34134;SDS011;20410;55.578;12.968;2023-05-19T08:09:32;10.68;;;3.55;;
34134;SDS011;20410;55.578;12.968;2023-05-19T08:11:57;9.32;;;3.38;;
34134;SDS011;20410;55.578;12.968;2023-05-19T08:14:23;12.27;;;4.13;;
34134;SDS011;20410;55.578;12.968;2023-05-19T08:16:49;7.38;;;2.72;;
34134;SDS011;20410;55.578;12.968;2023-05-19T08:19:14;8.10;;;3.78;;
34134;SDS011;20410;55.578;12.968;2023-05-19T08:21:40;12.88;;;4.38;;
34134;SDS011;20410;55.578;12.968;2023-05-19T08:24:06;11.00;;;3.67;;
34134;SDS011;20410;55.578;12.968;2023-05-19T08:26:33;11.32;;;3.97;;
34134;SDS011;20410;55.578;12.968;2023-05-19T08:28:58;12.88;;;4.72;;
34134;SDS011;20410;55.578;12.968;2023-05-19T08:31:24;10.45;;;3.97;;
34134;SDS011;20410;55.578;12.968;2023-05-19T08:33:50;9.60;;;3.58;;
34134;SDS011;20410;55.578;12.968;2023-05-19T08:36:16;9.93;;;3.10;;
34134;SDS011;20410;55.578;12.968;2023-05-19T08:38:42;9.88;;;3.10;;
34134;SDS011;20410;55.578;12.968;2023-05-19T08:41:08;6.70;;;2.33;;
34134;SDS011;20410;55.578;12.968;2023-05-19T08:43:34;7.05;;;2.55;;
34134;SDS011;20410;55.578;12.968;2023-05-19T08:45:59;7.15;;;2.45;;
34134;SDS011;20410;55.578;12.968;2023-05-19T08:48:26;6.80;;;2.58;;
34134;SDS011;20410;55.578;12.968;2023-05-19T08:53:42;7.32;;;2.47;;
34134;SDS011;20410;55.578;12.968;2023-05-19T08:56:18;6.43;;;2.47;;
34134;SDS011;20410;55.578;12.968;2023-05-19T08:58:49;6.57;;;2.60;;
34134;SDS011;20410;55.578;12.968;2023-05-19T09:01:15;9.05;;;2.90;;
34134;SDS011;20410;55.578;12.968;2023-05-19T09:03:43;5.20;;;2.72;;
34134;SDS011;20410;55.578;12.968;2023-05-19T09:06:10;8.65;;;3.08;;
34134;SDS011;20410;55.578;12.968;2023-05-19T09:08:41;7.22;;;3.40;;
34134;SDS011;20410;55.578;12.968;2023-05-19T09:11:07;9.15;;;3.25;;
34134;SDS011;20410;55.578;12.968;2023-05-19T09:13:34;8.75;;;3.60;;
34134;SDS011;20410;55.578;12.968;2023-05-19T09:16:00;9.27;;;3.55;;
34134;SDS011;20410;55.578;12.968;2023-05-19T09:18:27;10.77;;;3.58;;
34134;SDS011;20410;55.578;12.968;2023-05-19T09:20:58;9.75;;;3.55;;
34134;SDS011;20410;55.578;12.968;2023-05-19T09:23:30;10.75;;;4.43;;
34134;SDS011;20410;55.578;12.968;2023-05-19T09:26:00;8.65;;;3.97;;
34134;SDS011;20410;55.578;12.968;2023-05-19T09:28:33;12.55;;;3.40;;
34134;SDS011;20410;55.578;12.968;2023-05-19T09:33:36;8.63;;;4.05;;
34134;SDS011;20410;55.578;12.968;2023-05-19T09:36:09;10.18;;;3.78;;
34134;SDS011;20410;55.578;12.968;2023-05-19T09:38:36;11.45;;;3.92;;
34134;SDS011;20410;55.578;12.968;2023-05-19T09:41:03;8.98;;;3.65;;
34134;SDS011;20410;55.578;12.968;2023-05-19T09:43:30;10.25;;;4.03;;
34134;SDS011;20410;55.578;12.968;2023-05-19T09:46:04;11.40;;;4.43;;
34134;SDS011;20410;55.578;12.968;2023-05-19T09:48:30;10.15;;;3.80;;
34134;SDS011;20410;55.578;12.968;2023-05-19T09:50:56;13.23;;;6.85;;
34134;SDS011;20410;55.578;12.968;2023-05-19T09:53:24;9.40;;;3.83;;
34134;SDS011;20410;55.578;12.968;2023-05-19T09:55:49;12.13;;;3.55;;
34134;SDS011;20410;55.578;12.968;2023-05-19T09:58:21;10.88;;;3.53;;
34134;SDS011;20410;55.578;12.968;2023-05-19T10:00:48;10.88;;;4.07;;
34134;SDS011;20410;55.578;12.968;2023-05-19T10:03:14;9.82;;;3.85;;
34134;SDS011;20410;55.578;12.968;2023-05-19T10:05:42;9.60;;;3.40;;
34134;SDS011;20410;55.578;12.968;2023-05-19T10:08:08;7.22;;;3.70;;
34134;SDS011;20410;55.578;12.968;2023-05-19T10:10:36;12.75;;;3.60;;
34134;SDS011;20410;55.578;12.968;2023-05-19T10:13:02;11.68;;;3.80;;
34134;SDS011;20410;55.578;12.968;2023-05-19T10:15:29;10.55;;;3.58;;
34134;SDS011;20410;55.578;12.968;2023-05-19T10:17:55;9.30;;;3.72;;
34134;SDS011;20410;55.578;12.968;2023-05-19T10:20:21;8.75;;;3.15;;
34134;SDS011;20410;55.578;12.968;2023-05-19T10:22:46;9.90;;;3.60;;
34134;SDS011;20410;55.578;12.968;2023-05-19T10:25:13;10.30;;;3.80;;
34134;SDS011;20410;55.578;12.968;2023-05-19T10:27:43;11.30;;;3.20;;
34134;SDS011;20410;55.578;12.968;2023-05-19T10:30:29;11.30;;;3.38;;
34134;SDS011;20410;55.578;12.968;2023-05-19T10:33:01;10.70;;;3.40;;
34134;SDS011;20410;55.578;12.968;2023-05-19T10:44:08;8.32;;;3.20;;
34134;SDS011;20410;55.578;12.968;2023-05-19T10:46:59;10.10;;;3.47;;
34134;SDS011;20410;55.578;12.968;2023-05-19T10:49:25;8.55;;;3.65;;
34134;SDS011;20410;55.578;12.968;2023-05-19T10:51:51;10.32;;;3.65;;
34134;SDS011;20410;55.578;12.968;2023-05-19T10:54:39;11.35;;;3.70;;
34134;SDS011;20410;55.578;12.968;2023-05-19T10:57:07;12.48;;;4.10;;
34134;SDS011;20410;55.578;12.968;2023-05-19T10:59:34;11.48;;;3.88;;
34134;SDS011;20410;55.578;12.968;2023-05-19T11:02:04;11.75;;;4.10;;
34134;SDS011;20410;55.578;12.968;2023-05-19T11:07:17;10.27;;;3.65;;
34134;SDS011;20410;55.578;12.968;2023-05-19T11:09:47;12.27;;;3.60;;
34134;SDS011;20410;55.578;12.968;2023-05-19T11:12:20;8.85;;;3.28;;
34134;SDS011;20410;55.578;12.968;2023-05-19T11:14:46;9.85;;;3.60;;
34134;SDS011;20410;55.578;12.968;2023-05-19T11:17:13;8.90;;;3.50;;
34134;SDS011;20410;55.578;12.968;2023-05-19T11:19:39;8.48;;;3.08;;
34134;SDS011;20410;55.578;12.968;2023-05-19T11:22:21;7.22;;;3.17;;
34134;SDS011;20410;55.578;12.968;2023-05-19T11:24:48;7.80;;;2.78;;
34134;SDS011;20410;55.578;12.968;2023-05-19T11:27:29;8.10;;;3.33;;
34134;SDS011;20410;55.578;12.968;2023-05-19T11:32:31;8.30;;;3.08;;
34134;SDS011;20410;55.578;12.968;2023-05-19T11:34:58;6.30;;;2.85;;
34134;SDS011;20410;55.578;12.968;2023-05-19T11:37:25;8.77;;;2.72;;
34134;SDS011;20410;55.578;12.968;2023-05-19T11:39:52;11.20;;;3.50;;
34134;SDS011;20410;55.578;12.968;2023-05-19T11:42:18;9.80;;;3.25;;
34134;SDS011;20410;55.578;12.968;2023-05-19T11:44:44;8.43;;;3.22;;
34134;SDS011;20410;55.578;12.968;2023-05-19T11:47:11;7.65;;;3.10;;
34134;SDS011;20410;55.578;12.968;2023-05-19T11:49:37;8.07;;;3.15;;
34134;SDS011;20410;55.578;12.968;2023-05-19T11:52:03;12.18;;;3.40;;
34134;SDS011;20410;55.578;12.968;2023-05-19T11:54:30;7.53;;;2.85;;
34134;SDS011;20410;55.578;12.968;2023-05-19T11:56:58;8.15;;;2.88;;
34134;SDS011;20410;55.578;12.968;2023-05-19T11:59:33;10.35;;;2.92;;
34134;SDS011;20410;55.578;12.968;2023-05-19T12:02:01;7.70;;;3.03;;
34134;SDS011;20410;55.578;12.968;2023-05-19T12:04:40;8.20;;;3.05;;
34134;SDS011;20410;55.578;12.968;2023-05-19T12:07:06;8.30;;;2.95;;
34134;SDS011;20410;55.578;12.968;2023-05-19T12:09:32;7.95;;;2.60;;
34134;SDS011;20410;55.578;12.968;2023-05-19T12:11:57;7.00;;;3.13;;
34134;SDS011;20410;55.578;12.968;2023-05-19T12:14:25;8.90;;;2.97;;
34134;SDS011;20410;55.578;12.968;2023-05-19T12:16:51;9.23;;;2.92;;
34134;SDS011;20410;55.578;12.968;2023-05-19T12:19:16;9.25;;;2.95;;
34134;SDS011;20410;55.578;12.968;2023-05-19T12:21:42;10.68;;;3.40;;
34134;SDS011;20410;55.578;12.968;2023-05-19T12:24:08;6.95;;;2.15;;
34134;SDS011;20410;55.578;12.968;2023-05-19T12:26:35;15.50;;;3.00;;
34134;SDS011;20410;55.578;12.968;2023-05-19T12:29:03;5.97;;;2.50;;
34134;SDS011;20410;55.578;12.968;2023-05-19T12:31:30;7.88;;;2.60;;
34134;SDS011;20410;55.578;12.968;2023-05-19T12:33:56;9.88;;;2.83;;
34134;SDS011;20410;55.578;12.968;2023-05-19T12:36:23;6.10;;;2.17;;
34134;SDS011;20410;55.578;12.968;2023-05-19T12:38:52;8.93;;;2.50;;
34134;SDS011;20410;55.578;12.968;2023-05-19T12:41:18;13.25;;;3.38;;
34134;SDS011;20410;55.578;12.968;2023-05-19T12:43:44;7.10;;;2.47;;
34134;SDS011;20410;55.578;12.968;2023-05-19T12:46:10;5.10;;;2.10;;
34134;SDS011;20410;55.578;12.968;2023-05-19T12:48:40;7.10;;;2.30;;
34134;SDS011;20410;55.578;12.968;2023-05-19T12:51:09;6.13;;;2.30;;
34134;SDS011;20410;55.578;12.968;2023-05-19T12:53:39;8.40;;;2.05;;
34134;SDS011;20410;55.578;12.968;2023-05-19T12:56:12;6.88;;;2.13;;
34134;SDS011;20410;55.578;12.968;2023-05-19T12:58:42;5.85;;;1.95;;
34134;SDS011;20410;55.578;12.968;2023-05-19T13:01:16;4.55;;;1.73;;
34134;SDS011;20410;55.578;12.968;2023-05-19T13:03:42;3.75;;;2.03;;
34134;SDS011;20410;55.578;12.968;2023-05-19T13:06:08;5.35;;;1.88;;
34134;SDS011;20410;55.578;12.968;2023-05-19T13:08:35;5.85;;;2.08;;
34134;SDS011;20410;55.578;12.968;2023-05-19T13:11:01;4.63;;;1.77;;
34134;SDS011;20410;55.578;12.968;2023-05-19T13:13:27;3.40;;;1.55;;
34134;SDS011;20410;55.578;12.968;2023-05-19T13:15:53;4.32;;;1.63;;
34134;SDS011;20410;55.578;12.968;2023-05-19T13:18:18;4.13;;;1.70;;
34134;SDS011;20410;55.578;12.968;2023-05-19T13:20:44;3.17;;;1.70;;
34134;SDS011;20410;55.578;12.968;2023-05-19T13:23:11;6.35;;;1.60;;
34134;SDS011;20410;55.578;12.968;2023-05-19T13:25:37;3.78;;;1.63;;
34134;SDS011;20410;55.578;12.968;2023-05-19T13:28:03;4.70;;;1.80;;
34134;SDS011;20410;55.578;12.968;2023-05-19T13:30:36;3.67;;;1.77;;
34134;SDS011;20410;55.578;12.968;2023-05-19T13:33:03;4.85;;;1.80;;
34134;SDS011;20410;55.578;12.968;2023-05-19T13:35:29;5.95;;;1.98;;
34134;SDS011;20410;55.578;12.968;2023-05-19T13:38:01;2.90;;;1.42;;
34134;SDS011;20410;55.578;12.968;2023-05-19T13:40:30;2.63;;;1.60;;
34134;SDS011;20410;55.578;12.968;2023-05-19T13:42:59;2.08;;;1.50;;
34134;SDS011;20410;55.578;12.968;2023-05-19T13:45:26;3.95;;;1.98;;
34134;SDS011;20410;55.578;12.968;2023-05-19T13:47:51;4.38;;;1.45;;
34134;SDS011;20410;55.578;12.968;2023-05-19T13:50:17;4.25;;;1.55;;
34134;SDS011;20410;55.578;12.968;2023-05-19T13:52:42;3.47;;;1.63;;
34134;SDS011;20410;55.578;12.968;2023-05-19T13:55:08;4.65;;;1.65;;
34134;SDS011;20410;55.578;12.968;2023-05-19T13:57:34;1.67;;;1.30;;
34134;SDS011;20410;55.578;12.968;2023-05-19T14:00:00;4.97;;;1.77;;
34134;SDS011;20410;55.578;12.968;2023-05-19T14:02:26;4.40;;;1.45;;
34134;SDS011;20410;55.578;12.968;2023-05-19T14:04:51;4.03;;;1.48;;
34134;SDS011;20410;55.578;12.968;2023-05-19T14:07:17;3.35;;;1.30;;
34134;SDS011;20410;55.578;12.968;2023-05-19T14:09:43;3.58;;;1.52;;
34134;SDS011;20410;55.578;12.968;2023-05-19T14:12:10;6.50;;;1.55;;
34134;SDS011;20410;55.578;12.968;2023-05-19T14:14:36;2.35;;;1.40;;
34134;SDS011;20410;55.578;12.968;2023-05-19T14:17:02;3.03;;;1.50;;
34134;SDS011;20410;55.578;12.968;2023-05-19T14:19:27;2.28;;;1.42;;
34134;SDS011;20410;55.578;12.968;2023-05-19T14:21:54;1.73;;;1.20;;
34134;SDS011;20410;55.578;12.968;2023-05-19T14:24:20;2.92;;;1.40;;
34134;SDS011;20410;55.578;12.968;2023-05-19T14:26:46;3.42;;;1.45;;
34134;SDS011;20410;55.578;12.968;2023-05-19T14:29:12;5.88;;;1.65;;
34134;SDS011;20410;55.578;12.968;2023-05-19T14:31:37;5.35;;;1.50;;
34134;SDS011;20410;55.578;12.968;2023-05-19T14:34:03;2.92;;;1.20;;
34134;SDS011;20410;55.578;12.968;2023-05-19T14:36:29;3.20;;;1.38;;
34134;SDS011;20410;55.578;12.968;2023-05-19T14:38:55;3.50;;;1.40;;
34134;SDS011;20410;55.578;12.968;2023-05-19T14:41:20;3.90;;;1.30;;
34134;SDS011;20410;55.578;12.968;2023-05-19T14:43:46;1.80;;;1.15;;
34134;SDS011;20410;55.578;12.968;2023-05-19T14:46:12;3.00;;;1.30;;
34134;SDS011;20410;55.578;12.968;2023-05-19T14:48:37;2.42;;;1.27;;
34134;SDS011;20410;55.578;12.968;2023-05-19T14:51:03;2.33;;;1.20;;
34134;SDS011;20410;55.578;12.968;2023-05-19T14:53:28;2.08;;;1.20;;